Time,TemperatureF,DewpointF,PressureIn,WindDirection,WindDirectionDegrees,WindSpeedMPH,WindSpeedGustMPH,Humidity,HourlyPrecipIn,Conditions,Clouds,dailyrainin,SoftwareType,DateUTC
2013-05-16 00:07:00,50.4,49.0,29.61,SSW,213,0.0,-999.0,96,-99.99,,,0.17,weatherlink.com 1.10,2013-05-16 04:07:00,
2013-05-16 00:22:00,50.3,49.0,29.60,South,190,0.0,-999.0,96,-99.99,,,0.17,weatherlink.com 1.10,2013-05-16 04:22:00,
2013-05-16 00:37:00,50.1,49.0,29.61,South,190,0.0,-999.0,96,-99.99,,,0.17,weatherlink.com 1.10,2013-05-16 04:37:00,
2013-05-16 00:52:00,50.2,49.0,29.61,SSW,199,0.0,-999.0,96,-99.99,,,0.00,weatherlink.com 1.10,2013-05-16 04:52:00,
2013-05-16 01:07:00,50.3,50.0,29.61,SE,144,0.0,-999.0,97,-99.99,,,0.00,weatherlink.com 1.10,2013-05-16 05:07:00,
2013-05-16 01:22:00,50.4,49.0,29.60,SSW,213,0.0,-999.0,96,-99.99,,,0.00,weatherlink.com 1.10,2013-05-16 05:22:00,
2013-05-16 01:37:00,50.3,49.0,29.60,SW,227,0.0,-999.0,96,-99.99,,,0.00,weatherlink.com 1.10,2013-05-16 05:37:00,
2013-05-16 01:52:00,50.3,50.0,29.60,SW,219,0.0,-999.0,97,-99.99,,,0.00,weatherlink.com 1.10,2013-05-16 05:52:00,
2013-05-16 02:07:00,50.3,50.0,29.60,South,191,0.0,-999.0,97,-99.99,,,0.00,weatherlink.com 1.10,2013-05-16 06:07:00,
2013-05-16 02:22:00,50.3,50.0,29.60,South,180,0.0,-999.0,97,-99.99,,,0.00,weatherlink.com 1.10,2013-05-16 06:22:00,
2013-05-16 02:37:00,50.2,49.0,29.60,South,171,0.0,-999.0,97,-99.99,,,0.00,weatherlink.com 1.10,2013-05-16 06:37:00,
2013-05-16 02:52:00,50.1,49.0,29.61,South,171,0.0,-999.0,97,-99.99,,,0.00,weatherlink.com 1.10,2013-05-16 06:52:00,
2013-05-16 03:07:00,50.2,49.0,29.60,SSW,202,0.0,-999.0,97,-99.99,,,0.00,weatherlink.com 1.10,2013-05-16 07:07:00,
2013-05-16 03:22:00,50.1,49.0,29.60,SW,216,0.0,-999.0,97,-99.99,,,0.00,weatherlink.com 1.10,2013-05-16 07:22:00,
2013-05-16 03:37:00,49.9,49.0,29.60,SW,216,1.0,-999.0,97,-99.99,,,0.00,weatherlink.com 1.10,2013-05-16 07:37:00,
2013-05-16 03:52:00,49.9,49.0,29.59,South,182,0.0,-999.0,98,-99.99,,,0.00,weatherlink.com 1.10,2013-05-16 07:52:00,
2013-05-16 04:07:00,49.7,49.0,29.58,South,183,0.0,-999.0,97,-99.99,,,0.00,weatherlink.com 1.10,2013-05-16 08:07:00,
2013-05-16 04:22:00,49.3,49.0,29.58,SSW,206,0.0,-999.0,97,-99.99,,,0.00,weatherlink.com 1.10,2013-05-16 08:22:00,
2013-05-16 04:37:00,49.0,49.0,29.58,SW,224,0.0,-999.0,98,-99.99,,,0.00,weatherlink.com 1.10,2013-05-16 08:37:00,
2013-05-16 04:52:00,49.0,49.0,29.58,SW,224,2.0,-999.0,98,-99.99,,,0.00,weatherlink.com 1.10,2013-05-16 08:52:00,
2013-05-16 05:07:00,49.0,49.0,29.58,South,176,0.0,-999.0,98,-99.99,,,0.00,weatherlink.com 1.10,2013-05-16 09:07:00,
2013-05-16 05:22:00,48.9,48.0,29.59,South,178,0.0,-999.0,98,-99.99,,,0.00,weatherlink.com 1.10,2013-05-16 09:22:00,
2013-05-16 05:37:00,48.7,48.0,29.59,South,190,0.0,-999.0,98,-99.99,,,0.00,weatherlink.com 1.10,2013-05-16 09:37:00,
2013-05-16 05:52:00,48.6,48.0,29.60,South,190,0.0,-999.0,98,-99.99,,,0.00,weatherlink.com 1.10,2013-05-16 09:52:00,
2013-05-16 06:07:00,48.4,48.0,29.60,South,190,0.0,-999.0,98,-99.99,,,0.00,weatherlink.com 1.10,2013-05-16 10:07:00,
2013-05-16 06:22:00,48.1,48.0,29.60,South,190,0.0,-999.0,98,-99.99,,,0.00,weatherlink.com 1.10,2013-05-16 10:22:00,
2013-05-16 06:37:00,47.8,47.0,29.61,South,190,0.0,-999.0,98,-99.99,,,0.00,weatherlink.com 1.10,2013-05-16 10:37:00,
2013-05-16 06:52:00,47.7,47.0,29.61,South,190,0.0,-999.0,98,-99.99,,,0.00,weatherlink.com 1.10,2013-05-16 10:52:00,
2013-05-16 07:07:00,47.8,48.0,29.61,SE,140,0.0,-999.0,99,-99.99,,,0.00,weatherlink.com 1.10,2013-05-16 11:07:00,
2013-05-16 07:22:00,48.0,48.0,29.61,SSW,208,1.0,-999.0,99,-99.99,,,0.00,weatherlink.com 1.10,2013-05-16 11:22:00,
2013-05-16 07:37:00,48.4,48.0,29.61,SSW,208,0.0,-999.0,98,-99.99,,,0.00,weatherlink.com 1.10,2013-05-16 11:37:00,
2013-05-16 07:52:00,48.9,48.0,29.61,SSW,197,0.0,-999.0,97,-99.99,,,0.00,weatherlink.com 1.10,2013-05-16 11:52:00,
2013-05-16 08:07:00,50.2,48.0,29.61,SSW,194,2.0,-999.0,92,-99.99,,,0.00,weatherlink.com 1.10,2013-05-16 12:07:00,
2013-05-16 08:22:00,51.7,49.0,29.60,SSW,200,0.0,-999.0,89,-99.99,,,0.00,weatherlink.com 1.10,2013-05-16 12:22:00,
2013-05-16 08:37:00,52.5,48.0,29.61,WNW,292,0.0,-999.0,84,-99.99,,,0.00,weatherlink.com 1.10,2013-05-16 12:37:00,
2013-05-16 08:52:00,53.4,49.0,29.61,South,190,0.0,-999.0,84,-99.99,,,0.00,weatherlink.com 1.10,2013-05-16 12:52:00,
2013-05-16 09:08:00,54.0,49.0,29.60,SE,136,0.0,-999.0,82,-99.99,,,0.00,weatherlink.com 1.10,2013-05-16 13:08:00,
2013-05-16 09:23:00,55.5,48.0,29.61,SSW,203,1.0,-999.0,75,-99.99,,,0.00,weatherlink.com 1.10,2013-05-16 13:23:00,
2013-05-16 09:38:00,56.7,49.0,29.60,South,189,0.0,-999.0,75,-99.99,,,0.00,weatherlink.com 1.10,2013-05-16 13:38:00,
2013-05-16 09:53:00,57.7,48.0,29.60,SSE,165,0.0,-999.0,69,-99.99,,,0.00,weatherlink.com 1.10,2013-05-16 13:53:00,
2013-05-16 10:08:00,58.6,49.0,29.60,SSW,203,0.0,-999.0,70,-99.99,,,0.00,weatherlink.com 1.10,2013-05-16 14:08:00,
2013-05-16 10:23:00,59.8,49.0,29.60,SSE,162,4.0,-999.0,68,-99.99,,,0.00,weatherlink.com 1.10,2013-05-16 14:23:00,
2013-05-16 10:38:00,60.6,48.0,29.60,WNW,288,1.0,-999.0,64,-99.99,,,0.00,weatherlink.com 1.10,2013-05-16 14:38:00,
2013-05-16 10:53:00,61.5,49.0,29.60,SW,215,3.0,-999.0,64,-99.99,,,0.00,weatherlink.com 1.10,2013-05-16 14:53:00,
2013-05-16 11:08:00,62.3,49.0,29.60,SSE,167,4.0,-999.0,62,-99.99,,,0.00,weatherlink.com 1.10,2013-05-16 15:08:00,
2013-05-16 11:23:00,64.6,43.0,29.59,West,273,2.0,-999.0,45,-99.99,,,0.00,weatherlink.com 1.10,2013-05-16 15:23:00,
2013-05-16 11:38:00,65.9,44.0,29.60,South,171,7.0,-999.0,45,-99.99,,,0.00,weatherlink.com 1.10,2013-05-16 15:38:00,
2013-05-16 11:53:00,66.6,41.0,29.59,West,277,1.0,-999.0,40,-99.99,,,0.00,weatherlink.com 1.10,2013-05-16 15:53:00,
2013-05-16 12:08:00,67.4,38.0,29.59,WNW,300,0.0,-999.0,34,-99.99,,,0.00,weatherlink.com 1.10,2013-05-16 16:08:00,
2013-05-16 12:24:00,68.0,36.0,29.59,South,182,8.0,-999.0,31,-99.99,,,0.00,weatherlink.com 1.10,2013-05-16 16:24:00,
2013-05-16 12:38:00,68.3,38.0,29.58,WSW,250,0.0,-999.0,33,-99.99,,,0.00,weatherlink.com 1.10,2013-05-16 16:38:00,
2013-05-16 12:53:00,68.2,36.0,29.58,WNW,282,2.0,-999.0,31,-99.99,,,0.00,weatherlink.com 1.10,2013-05-16 16:53:00,
2013-05-16 13:08:00,69.2,37.0,29.58,WSW,257,3.0,-999.0,31,-99.99,,,0.00,weatherlink.com 1.10,2013-05-16 17:08:00,
2013-05-16 13:23:00,70.5,37.0,29.57,WNW,283,2.0,-999.0,29,-99.99,,,0.00,weatherlink.com 1.10,2013-05-16 17:23:00,
2013-05-16 13:38:00,70.8,37.0,29.58,WNW,298,1.0,-999.0,29,-99.99,,,0.00,weatherlink.com 1.10,2013-05-16 17:38:00,
2013-05-16 13:53:00,71.4,37.0,29.57,SW,221,5.0,-999.0,29,-99.99,,,0.00,weatherlink.com 1.10,2013-05-16 17:53:00,
2013-05-16 14:08:00,70.8,35.0,29.57,SSE,155,7.0,-999.0,27,-99.99,,,0.00,weatherlink.com 1.10,2013-05-16 18:08:00,
2013-05-16 14:23:00,70.2,35.0,29.56,North,360,6.0,-999.0,28,-99.99,,,0.00,weatherlink.com 1.10,2013-05-16 18:23:00,
2013-05-16 14:39:00,72.5,35.0,29.56,South,185,7.0,-999.0,25,-99.99,,,0.00,weatherlink.com 1.10,2013-05-16 18:39:00,
2013-05-16 14:54:00,71.5,34.0,29.57,NNW,337,11.0,-999.0,25,-99.99,,,0.00,weatherlink.com 1.10,2013-05-16 18:54:00,
2013-05-16 15:09:00,70.3,35.0,29.57,NNE,15,3.0,-999.0,27,-99.99,,,0.00,weatherlink.com 1.10,2013-05-16 19:09:00,
2013-05-16 15:24:00,70.7,37.0,29.56,WSW,252,4.0,-999.0,29,-99.99,,,0.00,weatherlink.com 1.10,2013-05-16 19:24:00,
2013-05-16 15:39:00,71.2,39.0,29.57,WSW,243,3.0,-999.0,31,-99.99,,,0.00,weatherlink.com 1.10,2013-05-16 19:39:00,
2013-05-16 15:54:00,71.5,38.0,29.58,NW,307,2.0,-999.0,29,-99.99,,,0.00,weatherlink.com 1.10,2013-05-16 19:54:00,
2013-05-16 16:09:00,70.7,39.0,29.58,North,349,3.0,-999.0,32,-99.99,,,0.00,weatherlink.com 1.10,2013-05-16 20:09:00,
2013-05-16 16:24:00,68.8,38.0,29.59,SW,223,2.0,-999.0,33,-99.99,,,0.00,weatherlink.com 1.10,2013-05-16 20:24:00,
2013-05-16 16:39:00,66.9,40.0,29.60,West,277,3.0,-999.0,37,-99.99,,,0.00,weatherlink.com 1.10,2013-05-16 20:39:00,
2013-05-16 16:54:00,66.9,40.0,29.60,ENE,78,1.0,-999.0,38,-99.99,,,0.00,weatherlink.com 1.10,2013-05-16 20:54:00,
2013-05-16 17:09:00,66.6,40.0,29.61,WNW,302,2.0,-999.0,38,-99.99,,,0.00,weatherlink.com 1.10,2013-05-16 21:09:00,
2013-05-16 17:24:00,65.5,41.0,29.62,North,360,2.0,-999.0,41,-99.99,,,0.00,weatherlink.com 1.10,2013-05-16 21:24:00,
2013-05-16 17:39:00,63.4,42.0,29.63,NW,306,2.0,-999.0,46,-99.99,,,0.00,weatherlink.com 1.10,2013-05-16 21:39:00,
2013-05-16 17:54:00,61.8,42.0,29.64,North,355,1.0,-999.0,49,-99.99,,,0.00,weatherlink.com 1.10,2013-05-16 21:54:00,
2013-05-16 18:09:00,60.0,43.0,29.65,NW,307,0.0,-999.0,53,-99.99,,,0.00,weatherlink.com 1.10,2013-05-16 22:09:00,
2013-05-16 18:24:00,58.7,43.0,29.66,North,355,3.0,-999.0,56,-99.99,,,0.00,weatherlink.com 1.10,2013-05-16 22:24:00,
2013-05-16 18:39:00,57.9,43.0,29.67,NNE,17,2.0,-999.0,58,-99.99,,,0.00,weatherlink.com 1.10,2013-05-16 22:39:00,
2013-05-16 18:54:00,57.0,43.0,29.68,NW,317,2.0,-999.0,59,-99.99,,,0.00,weatherlink.com 1.10,2013-05-16 22:54:00,
2013-05-16 19:09:00,56.1,42.0,29.70,WNW,282,3.0,-999.0,60,-99.99,,,0.00,weatherlink.com 1.10,2013-05-16 23:09:00,
2013-05-16 19:24:00,55.3,42.0,29.71,North,5,0.0,-999.0,61,-99.99,,,0.00,weatherlink.com 1.10,2013-05-16 23:24:00,
2013-05-16 19:39:00,54.8,42.0,29.71,North,5,0.0,-999.0,62,-99.99,,,0.00,weatherlink.com 1.10,2013-05-16 23:39:00,
2013-05-16 19:54:00,54.4,42.0,29.73,North,5,0.0,-999.0,63,-99.99,,,0.00,weatherlink.com 1.10,2013-05-16 23:54:00,
2013-05-16 20:09:00,54.0,42.0,29.73,North,5,0.0,-999.0,64,-99.99,,,0.00,weatherlink.com 1.10,2013-05-17 00:09:00,
2013-05-16 20:24:00,53.7,42.0,29.74,NNW,331,0.0,-999.0,64,-99.99,,,0.00,weatherlink.com 1.10,2013-05-17 00:24:00,
2013-05-16 20:39:00,53.5,42.0,29.75,NNW,331,0.0,-999.0,65,-99.99,,,0.00,weatherlink.com 1.10,2013-05-17 00:39:00,
2013-05-16 20:54:00,53.4,42.0,29.75,NNW,331,0.0,-999.0,66,-99.99,,,0.00,weatherlink.com 1.10,2013-05-17 00:54:00,
2013-05-16 21:09:00,53.2,42.0,29.76,ENE,58,0.0,-999.0,66,-99.99,,,0.00,weatherlink.com 1.10,2013-05-17 01:09:00,
2013-05-16 21:24:00,53.0,41.0,29.77,SE,128,0.0,-999.0,65,-99.99,,,0.00,weatherlink.com 1.10,2013-05-17 01:24:00,
2013-05-16 21:39:00,52.9,42.0,29.77,SE,128,0.0,-999.0,66,-99.99,,,0.00,weatherlink.com 1.10,2013-05-17 01:39:00,
2013-05-16 21:54:00,52.6,42.0,29.78,West,280,1.0,-999.0,67,-99.99,,,0.00,weatherlink.com 1.10,2013-05-17 01:54:00,
2013-05-16 22:09:00,52.4,42.0,29.78,NE,37,0.0,-999.0,67,-99.99,,,0.00,weatherlink.com 1.10,2013-05-17 02:09:00,
2013-05-16 22:24:00,52.1,42.0,29.78,NE,44,0.0,-999.0,68,-99.99,,,0.00,weatherlink.com 1.10,2013-05-17 02:24:00,
2013-05-16 22:39:00,51.9,42.0,29.78,ENE,66,0.0,-999.0,70,-99.99,,,0.00,weatherlink.com 1.10,2013-05-17 02:39:00,
2013-05-16 22:54:00,51.6,42.0,29.78,SE,129,0.0,-999.0,70,-99.99,,,0.00,weatherlink.com 1.10,2013-05-17 02:54:00,
2013-05-16 23:09:00,51.4,42.0,29.79,SSW,213,0.0,-999.0,70,-99.99,,,0.00,weatherlink.com 1.10,2013-05-17 03:09:00,
2013-05-16 23:24:00,51.1,42.0,29.80,South,186,1.0,-999.0,70,-99.99,,,0.00,weatherlink.com 1.10,2013-05-17 03:24:00,
2013-05-16 23:39:00,50.9,41.0,29.80,South,186,0.0,-999.0,69,-99.99,,,0.00,weatherlink.com 1.10,2013-05-17 03:39:00,
2013-05-16 23:54:00,50.7,41.0,29.80,NNE,20,0.0,-999.0,69,-99.99,,,0.00,weatherlink.com 1.10,2013-05-17 03:54:00,